Time;durP1;ratioP1;P1;durP2;ratioP2;P2;SDS_P1;SDS_P2;PMS_P1;PMS_P2;Temp;Humidity;BMP_temperature;BMP_pressure;BME280_temperature;BME280_humidity;BME280_pressure;Samples;Min_cycle;Max_cycle;Signal;HPM_P1;HPM_P2
2023/12/28 00:01:19;;;;;;;3.35;1.60;;;8.70;99.90;;;;;;5043580;28;20068;-70
2023/12/28 00:03:45;;;;;;;1.90;1.13;;;8.80;99.90;;;;;;5020734;28;20131;-70
2023/12/28 00:06:11;;;;;;;1.85;1.45;;;8.70;99.90;;;;;;5001839;28;20044;-70
2023/12/28 00:08:37;;;;;;;2.85;1.52;;;8.70;99.90;;;;;;5041381;28;20139;-70
2023/12/28 00:11:02;;;;;;;3.33;1.50;;;8.80;99.90;;;;;;5030594;28;20048;-70
2023/12/28 00:13:28;;;;;;;3.13;2.03;;;8.80;99.90;;;;;;5032151;28;20048;-70
2023/12/28 00:15:54;;;;;;;1.80;1.40;;;8.70;99.90;;;;;;5021760;28;20123;-70
2023/12/28 00:18:19;;;;;;;4.32;1.90;;;8.80;99.90;;;;;;5043153;28;20473;-70
2023/12/28 00:20:45;;;;;;;7.53;1.48;;;8.80;99.90;;;;;;5035665;28;20515;-69
2023/12/28 00:23:11;;;;;;;1.48;1.38;;;8.80;99.90;;;;;;5033932;28;20052;-70
2023/12/28 00:25:37;;;;;;;4.05;1.65;;;8.80;99.90;;;;;;5042499;28;20137;-69
2023/12/28 00:28:03;;;;;;;3.17;1.52;;;8.70;99.90;;;;;;5044927;28;20040;-70
2023/12/28 00:30:28;;;;;;;2.97;1.48;;;8.80;99.90;;;;;;5043480;28;20139;-70
2023/12/28 00:32:54;;;;;;;4.82;1.60;;;8.80;99.90;;;;;;5025382;28;20447;-69
2023/12/28 00:35:20;;;;;;;3.72;1.95;;;8.80;99.90;;;;;;5042846;28;20045;-69
2023/12/28 00:37:45;;;;;;;1.98;1.30;;;8.80;99.90;;;;;;5041098;28;20124;-70
2023/12/28 00:40:11;;;;;;;2.38;1.33;;;8.80;99.90;;;;;;5040494;28;20044;-69
2023/12/28 00:42:39;;;;;;;2.08;1.55;;;8.80;99.90;;;;;;5028711;28;20158;-69
2023/12/28 00:45:05;;;;;;;4.10;1.70;;;8.80;99.90;;;;;;5035271;28;20060;-70
2023/12/28 00:47:31;;;;;;;6.55;1.75;;;8.90;99.90;;;;;;5045502;28;20080;-70
2023/12/28 00:49:57;;;;;;;7.63;2.42;;;8.90;99.90;;;;;;5044292;28;20087;-69
2023/12/28 00:52:22;;;;;;;3.25;1.50;;;8.90;99.90;;;;;;5024449;28;20383;-69
2023/12/28 00:54:48;;;;;;;8.18;1.77;;;8.90;99.90;;;;;;5034296;28;20144;-69
2023/12/28 00:57:14;;;;;;;4.20;1.80;;;8.90;99.90;;;;;;5032243;28;20588;-69
2023/12/28 00:59:40;;;;;;;4.97;2.03;;;8.90;99.90;;;;;;5016519;28;20055;-69
2023/12/28 01:02:05;;;;;;;2.60;1.38;;;8.90;99.90;;;;;;5045382;28;20533;-69
2023/12/28 01:04:31;;;;;;;5.45;1.35;;;8.90;99.90;;;;;;5044530;28;20090;-69
2023/12/28 01:06:58;;;;;;;3.40;1.38;;;8.80;99.90;;;;;;5043035;28;20055;-69
2023/12/28 01:09:24;;;;;;;3.95;2.63;;;8.80;99.90;;;;;;5011896;28;20056;-69
2023/12/28 01:11:50;;;;;;;2.83;1.52;;;8.80;99.90;;;;;;5046966;28;20063;-69
2023/12/28 01:14:15;;;;;;;4.00;2.10;;;8.80;99.90;;;;;;5031390;28;20506;-69
2023/12/28 01:16:43;;;;;;;4.10;1.52;;;8.70;99.90;;;;;;5054781;28;20077;-70
2023/12/28 01:19:10;;;;;;;2.25;1.92;;;8.70;99.90;;;;;;5040885;28;20048;-70
2023/12/28 01:21:36;;;;;;;3.63;1.88;;;8.70;99.90;;;;;;5040516;28;20676;-69
2023/12/28 01:24:02;;;;;;;1.83;1.30;;;8.70;99.90;;;;;;5031734;28;20053;-70
2023/12/28 01:26:28;;;;;;;4.55;1.75;;;8.70;99.90;;;;;;5033277;28;20051;-70
2023/12/28 01:28:54;;;;;;;5.95;2.15;;;8.60;99.90;;;;;;5027178;28;20048;-70
2023/12/28 01:31:19;;;;;;;1.58;1.30;;;8.70;99.90;;;;;;5043598;28;20083;-69
2023/12/28 01:33:45;;;;;;;4.28;1.77;;;8.60;99.90;;;;;;5040816;28;20582;-70
2023/12/28 01:36:18;;;;;;;1.75;1.40;;;8.60;99.90;;;;;;5029706;28;20060;-69
2023/12/28 01:38:44;;;;;;;5.68;2.40;;;8.60;99.90;;;;;;5042915;28;20044;-69
2023/12/28 01:41:10;;;;;;;4.85;1.73;;;8.60;99.90;;;;;;5026218;28;20052;-69
2023/12/28 01:43:36;;;;;;;8.32;2.15;;;8.60;99.90;;;;;;5040059;28;20102;-69
2023/12/28 01:46:02;;;;;;;13.13;1.77;;;8.60;99.90;;;;;;5010101;28;20043;-69
2023/12/28 01:48:28;;;;;;;8.52;2.78;;;8.60;99.90;;;;;;5022529;28;20493;-69
2023/12/28 01:50:56;;;;;;;8.85;2.28;;;8.60;99.90;;;;;;5009996;28;20040;-69
2023/12/28 01:53:22;;;;;;;10.73;2.72;;;8.60;99.90;;;;;;5026925;28;20052;-69
2023/12/28 01:55:48;;;;;;;6.85;1.60;;;8.60;99.90;;;;;;4993983;28;20502;-69
2023/12/28 01:58:14;;;;;;;6.72;2.42;;;8.70;99.90;;;;;;5044824;28;20040;-69
2023/12/28 02:00:42;;;;;;;1.58;1.48;;;8.70;99.90;;;;;;5030224;28;20048;-69
2023/12/28 02:03:08;;;;;;;7.40;2.15;;;8.70;99.90;;;;;;5035213;28;20055;-69
2023/12/28 02:05:34;;;;;;;8.68;2.75;;;8.70;99.90;;;;;;5002894;28;20041;-69
2023/12/28 02:08:00;;;;;;;1.58;1.33;;;8.70;99.90;;;;;;5035713;28;20052;-69
2023/12/28 02:10:27;;;;;;;8.07;2.60;;;8.70;99.90;;;;;;5008276;28;20056;-69
2023/12/28 02:12:53;;;;;;;8.50;2.30;;;8.70;99.90;;;;;;5045691;28;20125;-69
2023/12/28 02:15:20;;;;;;;5.53;2.60;;;8.70;99.90;;;;;;5056008;28;20056;-69
2023/12/28 02:17:58;;;;;;;8.43;2.00;;;8.70;99.90;;;;;;5030069;28;20093;-69
2023/12/28 02:20:25;;;;;;;2.60;1.17;;;8.70;99.90;;;;;;5042617;28;20052;-70
2023/12/28 02:22:52;;;;;;;5.15;2.03;;;8.80;99.90;;;;;;5049863;28;20047;-69
2023/12/28 02:25:18;;;;;;;6.90;1.73;;;8.80;99.90;;;;;;5033456;28;20056;-69
2023/12/28 02:27:48;;;;;;;8.20;2.50;;;8.80;99.90;;;;;;5047458;28;20045;-69
2023/12/28 02:30:17;;;;;;;5.60;1.83;;;8.80;99.90;;;;;;5058075;28;20391;-69
2023/12/28 02:32:47;;;;;;;4.72;1.77;;;8.80;99.90;;;;;;5039152;28;20091;-69
2023/12/28 02:35:35;;;;;;;5.28;1.85;;;8.80;99.90;;;;;;5028076;28;20047;-69
2023/12/28 02:38:08;;;;;;;3.40;1.23;;;8.80;99.90;;;;;;5051995;28;20144;-69
2023/12/28 02:40:38;;;;;;;11.18;2.58;;;8.80;99.90;;;;;;5061319;28;20044;-69
2023/12/28 02:43:08;;;;;;;10.07;2.00;;;8.80;99.90;;;;;;5042051;28;20044;-69
2023/12/28 02:45:35;;;;;;;8.77;2.70;;;8.80;99.90;;;;;;5055603;28;20131;-70
2023/12/28 02:48:01;;;;;;;8.40;1.95;;;8.80;99.90;;;;;;5031572;28;20084;-69
2023/12/28 02:50:26;;;;;;;6.70;1.63;;;8.80;99.90;;;;;;5062222;28;20446;-69
2023/12/28 02:52:52;;;;;;;8.45;1.88;;;8.80;99.90;;;;;;5045950;28;20124;-69
2023/12/28 02:55:18;;;;;;;6.20;1.52;;;8.90;99.90;;;;;;5038302;28;20047;-69
2023/12/28 02:57:44;;;;;;;6.90;2.10;;;8.90;99.90;;;;;;5053018;28;20340;-69
2023/12/28 03:00:11;;;;;;;6.90;1.58;;;8.90;99.90;;;;;;5029469;28;20047;-69
2023/12/28 03:02:37;;;;;;;7.00;1.48;;;8.90;99.90;;;;;;5049069;28;20521;-69
2023/12/28 03:05:07;;;;;;;8.48;2.05;;;8.90;99.90;;;;;;5023419;28;20071;-69
2023/12/28 03:07:36;;;;;;;2.78;1.50;;;8.90;99.90;;;;;;5048253;28;20585;-69
2023/12/28 03:10:03;;;;;;;11.27;1.92;;;9.00;99.90;;;;;;5021222;28;20072;-69
2023/12/28 03:12:30;;;;;;;8.02;1.70;;;9.00;99.90;;;;;;5049168;28;20396;-69
2023/12/28 03:14:55;;;;;;;3.63;1.75;;;9.00;99.90;;;;;;5058645;28;20452;-69
2023/12/28 03:17:22;;;;;;;10.73;1.50;;;9.10;99.90;;;;;;5051473;28;20048;-69
2023/12/28 03:19:47;;;;;;;15.05;2.17;;;9.20;99.90;;;;;;5061389;28;20045;-69
2023/12/28 03:22:13;;;;;;;9.73;1.70;;;9.20;99.90;;;;;;5049402;28;20509;-69
2023/12/28 03:24:40;;;;;;;8.52;1.88;;;9.30;99.90;;;;;;5056052;28;20126;-69
2023/12/28 03:27:06;;;;;;;13.10;1.90;;;9.30;99.90;;;;;;5019694;28;20043;-69
2023/12/28 03:29:32;;;;;;;15.30;1.50;;;9.40;99.90;;;;;;5046871;28;20052;-69
2023/12/28 03:31:58;;;;;;;16.98;2.22;;;9.40;99.90;;;;;;5052740;28;20557;-69
2023/12/28 03:34:26;;;;;;;13.25;1.58;;;9.40;99.90;;;;;;5052022;28;20059;-69
2023/12/28 03:36:52;;;;;;;11.77;1.70;;;9.50;99.90;;;;;;5043897;28;20194;-69
2023/12/28 03:39:18;;;;;;;6.60;1.35;;;9.50;99.90;;;;;;5031984;28;20055;-69
2023/12/28 03:41:44;;;;;;;12.27;2.03;;;9.50;99.90;;;;;;5054560;28;20447;-69
2023/12/28 03:44:09;;;;;;;6.95;1.33;;;9.50;99.90;;;;;;5031433;28;20044;-69
2023/12/28 03:46:35;;;;;;;10.48;2.15;;;9.60;99.90;;;;;;5055194;28;20036;-69
2023/12/28 03:49:01;;;;;;;10.73;2.50;;;9.60;99.90;;;;;;5043586;28;20315;-69
2023/12/28 03:51:26;;;;;;;7.75;1.80;;;9.60;99.90;;;;;;5060346;28;20104;-69
2023/12/28 03:53:52;;;;;;;6.30;1.52;;;9.70;99.90;;;;;;5044764;28;20044;-69
2023/12/28 03:56:20;;;;;;;4.97;1.52;;;9.80;99.90;;;;;;5063919;28;20463;-69
2023/12/28 03:58:46;;;;;;;5.32;1.25;;;9.80;99.90;;;;;;5021303;28;20039;-69
2023/12/28 04:01:11;;;;;;;8.52;2.00;;;9.90;99.90;;;;;;5060675;28;20108;-69
2023/12/28 04:03:37;;;;;;;5.95;1.08;;;9.90;99.90;;;;;;5045785;28;20555;-69
2023/12/28 04:06:03;;;;;;;6.90;1.17;;;9.90;99.90;;;;;;5039641;28;20048;-70
2023/12/28 04:08:29;;;;;;;5.75;1.10;;;9.90;99.90;;;;;;5049971;28;20473;-70
2023/12/28 04:10:55;;;;;;;10.60;2.25;;;9.80;99.90;;;;;;5040922;28;20546;-69
2023/12/28 04:13:21;;;;;;;18.40;2.05;;;9.80;99.90;;;;;;5047746;28;20147;-69
2023/12/28 04:15:46;;;;;;;4.80;0.90;;;9.80;99.90;;;;;;5035900;28;20048;-69
2023/12/28 04:18:12;;;;;;;5.03;1.42;;;9.90;99.90;;;;;;5029029;28;20070;-69
2023/12/28 04:20:38;;;;;;;5.72;1.25;;;9.90;99.90;;;;;;5026976;28;20052;-69
2023/12/28 04:23:03;;;;;;;10.45;1.67;;;9.90;99.90;;;;;;5007728;28;20128;-69
2023/12/28 04:25:29;;;;;;;10.75;2.17;;;9.90;99.90;;;;;;5029171;28;20040;-69
2023/12/28 04:27:55;;;;;;;6.03;1.30;;;9.90;99.90;;;;;;5033368;28;20047;-69
2023/12/28 04:30:21;;;;;;;5.35;1.50;;;9.90;99.90;;;;;;5021478;28;20415;-69
2023/12/28 04:32:47;;;;;;;4.15;1.08;;;9.90;99.90;;;;;;5033985;28;20065;-69
2023/12/28 04:35:13;;;;;;;13.20;2.17;;;9.90;99.90;;;;;;5037845;28;20051;-69
2023/12/28 04:37:38;;;;;;;9.15;1.50;;;9.90;99.90;;;;;;5021577;28;20102;-69
2023/12/28 04:40:04;;;;;;;9.07;1.42;;;9.90;99.90;;;;;;5020580;28;20046;-69
2023/12/28 04:42:30;;;;;;;7.65;1.55;;;9.90;99.90;;;;;;5033068;28;20465;-69
2023/12/28 04:44:56;;;;;;;8.68;1.73;;;9.90;99.90;;;;;;5042723;28;20044;-69
2023/12/28 04:47:21;;;;;;;13.23;1.88;;;9.90;99.90;;;;;;5027530;28;20048;-69
2023/12/28 04:49:47;;;;;;;8.82;1.73;;;9.90;99.90;;;;;;5006258;28;20049;-69
2023/12/28 04:52:13;;;;;;;4.22;1.33;;;10.00;99.90;;;;;;5039529;28;20122;-69
2023/12/28 04:54:42;;;;;;;8.48;1.73;;;10.00;99.90;;;;;;5041217;28;20083;-69
2023/12/28 04:57:08;;;;;;;2.90;0.60;;;9.90;99.90;;;;;;5055760;28;20407;-69
2023/12/28 04:59:41;;;;;;;5.53;1.23;;;10.00;99.90;;;;;;5045482;28;20040;-69
2023/12/28 05:02:07;;;;;;;7.50;1.25;;;10.00;99.90;;;;;;5032781;28;20637;-69
2023/12/28 05:04:38;;;;;;;10.27;1.52;;;10.00;99.90;;;;;;5037506;28;20389;-69
2023/12/28 05:07:04;;;;;;;9.57;1.25;;;10.00;99.90;;;;;;5037854;28;20048;-69
2023/12/28 05:09:29;;;;;;;7.00;1.23;;;10.00;99.90;;;;;;5051132;28;20067;-69
2023/12/28 05:11:55;;;;;;;13.02;1.58;;;10.00;99.90;;;;;;5027209;28;20040;-69
2023/12/28 05:14:21;;;;;;;9.07;1.48;;;10.00;99.90;;;;;;5046236;28;20119;-69
2023/12/28 05:16:46;;;;;;;5.97;1.00;;;10.00;99.90;;;;;;5029730;28;20036;-69
2023/12/28 05:19:12;;;;;;;7.95;1.50;;;10.10;99.90;;;;;;5045493;28;20479;-69
2023/12/28 05:21:38;;;;;;;12.75;2.05;;;10.10;99.90;;;;;;5041048;28;20075;-69
2023/12/28 05:24:04;;;;;;;14.98;1.45;;;10.20;99.90;;;;;;5056899;28;20048;-69
2023/12/28 05:26:30;;;;;;;13.93;2.05;;;10.30;99.90;;;;;;5054273;28;20051;-68
2023/12/28 05:28:56;;;;;;;15.57;2.10;;;10.30;99.90;;;;;;5049938;28;20053;-69
2023/12/28 05:31:21;;;;;;;7.15;1.73;;;10.30;99.90;;;;;;5057341;28;20053;-69
2023/12/28 05:33:47;;;;;;;12.60;1.40;;;10.30;99.90;;;;;;5053633;28;20036;-69
2023/12/28 05:36:13;;;;;;;12.07;1.48;;;10.20;99.90;;;;;;5012611;28;20513;-69
2023/12/28 05:38:38;;;;;;;5.97;1.15;;;10.20;99.90;;;;;;5038720;28;20066;-69
2023/12/28 05:41:04;;;;;;;6.28;0.75;;;10.20;99.90;;;;;;5004618;28;20502;-69
2023/12/28 05:43:30;;;;;;;14.27;1.52;;;10.20;99.90;;;;;;5024846;28;20117;-69
2023/12/28 05:45:56;;;;;;;13.95;1.77;;;10.30;99.90;;;;;;5054323;28;20048;-69
2023/12/28 05:48:21;;;;;;;9.98;1.60;;;10.20;99.90;;;;;;5043129;28;20235;-69
2023/12/28 05:50:47;;;;;;;2.60;0.95;;;10.20;99.90;;;;;;5052654;28;20497;-69
2023/12/28 05:53:14;;;;;;;13.25;1.63;;;10.20;99.90;;;;;;5014409;28;20045;-69
2023/12/28 05:55:43;;;;;;;3.72;1.40;;;10.30;99.90;;;;;;5060922;28;20059;-69
2023/12/28 05:58:09;;;;;;;12.95;1.92;;;10.30;99.90;;;;;;5033395;28;20399;-69
2023/12/28 06:00:38;;;;;;;9.93;1.38;;;10.30;99.90;;;;;;5025818;28;20505;-69
2023/12/28 06:03:05;;;;;;;14.07;1.98;;;10.30;99.90;;;;;;5038933;28;20049;-70
2023/12/28 06:05:31;;;;;;;12.57;1.88;;;10.30;99.90;;;;;;5051841;28;20379;-69
2023/12/28 06:07:57;;;;;;;16.90;2.47;;;10.30;99.90;;;;;;5050515;28;20310;-69
2023/12/28 06:10:24;;;;;;;6.95;1.50;;;10.30;99.90;;;;;;5044196;28;20056;-70
2023/12/28 06:12:50;;;;;;;6.38;1.33;;;10.30;99.90;;;;;;5042762;28;20048;-69
2023/12/28 06:15:16;;;;;;;17.52;2.58;;;10.30;99.90;;;;;;5032584;28;20041;-69
2023/12/28 06:17:42;;;;;;;11.40;1.80;;;10.40;99.90;;;;;;5028845;28;20122;-70
2023/12/28 06:20:08;;;;;;;12.60;2.33;;;10.40;99.90;;;;;;5041901;28;20120;-69
2023/12/28 06:22:36;;;;;;;17.75;2.53;;;10.40;99.90;;;;;;5050088;28;20104;-69
2023/12/28 06:25:03;;;;;;;9.93;2.75;;;10.30;99.90;;;;;;5043885;28;20071;-69
2023/12/28 06:27:29;;;;;;;4.75;1.27;;;10.30;99.90;;;;;;5027972;28;20405;-69
2023/12/28 06:29:55;;;;;;;12.15;1.60;;;10.30;99.90;;;;;;5047056;28;20101;-69
2023/12/28 06:32:20;;;;;;;10.48;1.60;;;10.30;99.90;;;;;;5047386;28;20040;-69
2023/12/28 06:34:46;;;;;;;10.93;1.67;;;10.30;99.90;;;;;;5052827;28;20546;-69
2023/12/28 06:37:12;;;;;;;11.70;2.40;;;10.30;99.90;;;;;;5058572;28;20048;-69
2023/12/28 06:39:39;;;;;;;24.52;3.25;;;10.30;99.90;;;;;;5033852;28;20115;-69
2023/12/28 06:42:05;;;;;;;5.57;1.50;;;10.40;99.90;;;;;;5042536;28;20132;-69
2023/12/28 06:44:30;;;;;;;9.52;1.85;;;10.30;99.90;;;;;;5041049;28;20206;-68
2023/12/28 06:46:58;;;;;;;16.52;2.50;;;10.30;99.90;;;;;;5036388;28;20067;-69
2023/12/28 06:49:24;;;;;;;6.45;1.25;;;10.30;99.90;;;;;;5041444;28;20057;-69
2023/12/28 06:51:50;;;;;;;8.80;2.20;;;10.30;99.90;;;;;;5034040;28;20076;-69
2023/12/28 06:54:16;;;;;;;6.28;1.48;;;10.30;99.90;;;;;;5044214;28;20377;-69
2023/12/28 06:56:42;;;;;;;9.75;1.50;;;10.30;99.90;;;;;;5042995;28;20040;-69
2023/12/28 06:59:12;;;;;;;7.90;1.05;;;10.30;99.90;;;;;;5026750;28;20061;-69
2023/12/28 07:01:41;;;;;;;12.52;1.95;;;10.30;99.90;;;;;;5041773;28;20045;-69
2023/12/28 07:04:07;;;;;;;23.53;2.33;;;10.30;99.90;;;;;;5043706;28;20056;-69
2023/12/28 07:06:33;;;;;;;12.90;1.70;;;10.30;99.90;;;;;;5043734;28;20049;-68
2023/12/28 07:08:59;;;;;;;7.35;1.60;;;10.30;99.90;;;;;;5021980;28;20527;-69
2023/12/28 07:11:26;;;;;;;12.82;1.83;;;10.40;99.90;;;;;;5049839;28;20130;-68
2023/12/28 07:13:52;;;;;;;9.80;1.90;;;10.40;99.90;;;;;;5041720;28;20048;-69
2023/12/28 07:16:18;;;;;;;11.90;1.80;;;10.40;99.90;;;;;;5062101;28;20501;-69
2023/12/28 07:18:43;;;;;;;5.53;1.13;;;10.30;99.90;;;;;;5032150;28;20084;-69
2023/12/28 07:21:09;;;;;;;10.18;2.00;;;10.40;99.90;;;;;;5060629;28;20245;-69
2023/12/28 07:23:36;;;;;;;16.00;2.15;;;10.40;99.90;;;;;;5025364;28;20403;-68
2023/12/28 07:26:03;;;;;;;12.55;2.08;;;10.30;99.90;;;;;;5017123;28;20672;-69
2023/12/28 07:28:29;;;;;;;6.25;0.63;;;10.30;99.90;;;;;;5042068;28;20071;-68
2023/12/28 07:30:55;;;;;;;20.08;2.53;;;10.30;99.90;;;;;;5030788;28;20498;-69
2023/12/28 07:33:21;;;;;;;11.00;2.35;;;10.30;99.90;;;;;;5039032;28;20075;-68
2023/12/28 07:35:47;;;;;;;10.32;1.88;;;10.30;99.90;;;;;;5042406;28;20518;-69
2023/12/28 07:38:12;;;;;;;28.77;3.30;;;10.40;99.90;;;;;;5026861;28;20411;-69
2023/12/28 07:40:38;;;;;;;15.38;2.67;;;10.40;99.90;;;;;;5042145;28;20502;-69
2023/12/28 07:43:05;;;;;;;17.65;2.15;;;10.40;99.90;;;;;;5040607;28;20418;-69
2023/12/28 07:45:31;;;;;;;21.08;2.85;;;10.40;99.90;;;;;;5041826;28;20049;-69
2023/12/28 07:47:59;;;;;;;7.35;1.38;;;10.40;99.90;;;;;;5040939;28;20037;-68
2023/12/28 07:50:24;;;;;;;8.98;1.65;;;10.40;99.90;;;;;;5025978;28;20093;-69
2023/12/28 07:52:50;;;;;;;9.82;1.13;;;10.40;99.90;;;;;;5041216;28;20048;-69
2023/12/28 07:55:16;;;;;;;26.80;4.63;;;10.40;99.90;;;;;;5024859;28;20090;-69
2023/12/28 07:57:42;;;;;;;12.38;1.45;;;10.40;99.90;;;;;;5017377;28;20508;-69
2023/12/28 08:00:08;;;;;;;9.40;2.33;;;10.40;99.90;;;;;;5015999;28;20091;-68
2023/12/28 08:02:34;;;;;;;6.78;0.98;;;10.40;99.90;;;;;;5037949;28;20048;-69
2023/12/28 08:04:59;;;;;;;23.13;3.08;;;10.40;99.90;;;;;;5024846;28;20076;-69
2023/12/28 08:07:25;;;;;;;16.08;2.17;;;10.50;99.90;;;;;;5022315;28;20373;-69
2023/12/28 08:09:51;;;;;;;12.25;2.08;;;10.50;99.90;;;;;;5049160;28;20087;-69
2023/12/28 08:12:17;;;;;;;8.20;2.10;;;10.50;99.90;;;;;;5039580;28;20502;-69
2023/12/28 08:14:43;;;;;;;11.90;2.38;;;10.50;99.90;;;;;;5059693;28;20048;-69
2023/12/28 08:17:10;;;;;;;4.22;1.02;;;10.50;99.90;;;;;;5029397;28;20500;-69
2023/12/28 08:19:36;;;;;;;15.10;2.40;;;10.60;99.90;;;;;;5027765;28;20040;-69
2023/12/28 08:22:02;;;;;;;14.23;1.83;;;10.60;99.90;;;;;;5046341;28;20376;-68
2023/12/28 08:24:28;;;;;;;2.95;1.08;;;10.60;99.90;;;;;;5011090;28;20383;-68
2023/12/28 08:26:54;;;;;;;18.02;3.03;;;10.60;99.90;;;;;;5029701;28;20459;-68
2023/12/28 08:29:20;;;;;;;20.13;2.83;;;10.60;99.90;;;;;;5045672;28;20415;-68
2023/12/28 08:31:46;;;;;;;4.60;1.33;;;10.60;99.90;;;;;;5026872;28;20044;-69
2023/12/28 08:34:12;;;;;;;15.95;2.13;;;10.60;99.90;;;;;;5044257;28;20536;-68
2023/12/28 08:36:37;;;;;;;26.15;2.92;;;10.60;99.90;;;;;;5010142;28;20245;-69
2023/12/28 08:39:03;;;;;;;5.25;1.60;;;10.70;99.90;;;;;;5029253;28;20048;-69
2023/12/28 08:41:29;;;;;;;15.98;2.28;;;10.70;99.90;;;;;;5044311;28;20083;-68
2023/12/28 08:43:55;;;;;;;20.38;3.25;;;10.70;99.90;;;;;;5028361;28;20058;-69
2023/12/28 08:46:27;;;;;;;22.30;2.92;;;10.70;99.90;;;;;;5010968;28;20047;-69
2023/12/28 08:48:53;;;;;;;28.38;3.95;;;10.70;99.90;;;;;;5025875;28;20509;-69
2023/12/28 08:51:18;;;;;;;27.70;3.97;;;10.70;99.90;;;;;;5029041;28;20442;-68
2023/12/28 08:53:44;;;;;;;26.15;3.30;;;10.70;99.90;;;;;;5027140;28;20051;-69
2023/12/28 08:56:18;;;;;;;29.63;5.53;;;10.70;99.90;;;;;;5044411;28;20040;-69
2023/12/28 08:58:46;;;;;;;19.30;1.75;;;10.70;99.90;;;;;;5024862;28;20131;-69
2023/12/28 09:01:22;;;;;;;17.50;2.25;;;10.70;99.90;;;;;;5021598;28;20048;-69
2023/12/28 09:03:53;;;;;;;25.05;3.33;;;10.80;99.90;;;;;;5024274;28;20044;-68
2023/12/28 09:06:19;;;;;;;26.98;4.40;;;10.80;99.90;;;;;;5021885;28;20568;-68
2023/12/28 09:08:47;;;;;;;15.88;2.38;;;10.80;99.90;;;;;;5011817;28;20052;-69
2023/12/28 09:11:14;;;;;;;23.20;3.50;;;10.80;99.90;;;;;;5052864;28;20119;-68
2023/12/28 09:13:40;;;;;;;24.13;3.20;;;10.80;99.90;;;;;;5042890;28;20056;-69
2023/12/28 09:16:07;;;;;;;12.35;2.17;;;10.90;99.90;;;;;;5043193;28;20111;-68
2023/12/28 09:18:33;;;;;;;16.90;2.20;;;10.90;99.90;;;;;;5026162;28;20136;-68
2023/12/28 09:20:59;;;;;;;19.52;3.38;;;10.90;99.90;;;;;;5025510;28;20037;-68
2023/12/28 09:23:25;;;;;;;21.02;3.05;;;10.90;99.90;;;;;;5042364;28;20110;-68
2023/12/28 09:25:50;;;;;;;14.68;3.33;;;10.90;99.90;;;;;;5043404;28;20446;-68
2023/12/28 09:28:16;;;;;;;14.60;1.83;;;10.90;99.90;;;;;;5024832;28;20054;-68
2023/12/28 09:30:42;;;;;;;20.00;3.08;;;10.90;99.90;;;;;;5026639;28;20435;-68
2023/12/28 09:33:07;;;;;;;14.60;2.85;;;10.90;99.90;;;;;;5044563;28;20055;-68
2023/12/28 09:35:33;;;;;;;28.27;4.45;;;10.90;99.90;;;;;;5044135;28;20044;-68
2023/12/28 09:37:59;;;;;;;13.07;2.38;;;11.00;99.90;;;;;;5034687;28;20044;-68
2023/12/28 09:40:30;;;;;;;36.03;4.53;;;11.00;99.90;;;;;;5043017;28;20091;-68
2023/12/28 09:43:21;;;;;;;24.65;3.28;;;11.00;99.90;;;;;;5056155;28;20087;-68
2023/12/28 09:45:48;;;;;;;20.50;2.90;;;11.00;99.90;;;;;;5042930;28;20052;-68
2023/12/28 09:48:18;;;;;;;14.38;1.83;;;11.00;99.90;;;;;;5044475;28;20036;-68
2023/12/28 09:50:57;;;;;;;14.05;2.03;;;11.00;99.90;;;;;;5019458;28;20761;-68
2023/12/28 09:53:27;;;;;;;21.92;2.63;;;11.00;99.90;;;;;;5041581;28;20644;-68
2023/12/28 09:55:53;;;;;;;;;;;11.00;99.90;;;;;;5047447;28;20044;-68
2023/12/28 09:58:20;;;;;;;24.55;3.85;;;11.10;99.90;;;;;;5040950;28;19936;-68
2023/12/28 10:00:49;;;;;;;14.27;1.67;;;11.10;99.90;;;;;;5023567;28;20398;-69
2023/12/28 10:03:15;;;;;;;17.15;2.88;;;11.10;99.90;;;;;;5042230;28;20040;-69
2023/12/28 10:05:42;;;;;;;26.52;3.30;;;11.10;99.90;;;;;;5043749;28;20045;-68
2023/12/28 10:08:08;;;;;;;23.52;3.42;;;11.10;99.90;;;;;;5043721;28;20514;-68
2023/12/28 10:10:34;;;;;;;11.00;1.83;;;11.10;99.90;;;;;;5043460;28;20117;-68
2023/12/28 10:13:00;;;;;;;21.73;3.53;;;11.10;99.90;;;;;;5044500;28;20494;-68
2023/12/28 10:15:26;;;;;;;20.90;2.78;;;11.10;99.90;;;;;;5039758;28;20066;-68
2023/12/28 10:17:52;;;;;;;27.23;3.80;;;11.00;99.90;;;;;;5019600;28;20051;-68
2023/12/28 10:20:18;;;;;;;29.08;3.25;;;11.00;99.90;;;;;;5025037;28;20123;-68
2023/12/28 10:22:44;;;;;;;25.23;4.97;;;11.00;99.90;;;;;;5026110;28;20135;-68
2023/12/28 10:25:11;;;;;;;21.20;2.88;;;11.00;99.90;;;;;;5042879;28;20047;-68
2023/12/28 10:27:42;;;;;;;21.27;2.63;;;11.00;99.90;;;;;;5012744;28;20064;-68
2023/12/28 10:30:10;;;;;;;27.35;3.30;;;11.00;99.90;;;;;;5036359;28;20155;-69
2023/12/28 10:32:39;;;;;;;17.88;3.38;;;11.00;99.90;;;;;;5014782;28;20041;-68
2023/12/28 10:35:05;;;;;;;24.47;3.33;;;11.00;99.90;;;;;;5040486;28;20060;-68
2023/12/28 10:37:33;;;;;;;27.67;3.88;;;11.00;99.90;;;;;;5040407;28;20045;-68
2023/12/28 10:40:00;;;;;;;11.75;1.98;;;11.00;99.90;;;;;;5043943;28;20121;-68
2023/12/28 10:42:37;;;;;;;23.55;3.95;;;11.00;99.90;;;;;;5023702;28;20051;-68
2023/12/28 10:45:07;;;;;;;18.02;2.10;;;11.00;99.90;;;;;;5025824;28;20573;-68
2023/12/28 10:47:36;;;;;;;25.65;3.08;;;11.00;99.90;;;;;;5043333;28;20041;-68
2023/12/28 10:50:05;;;;;;;31.27;4.65;;;11.00;99.90;;;;;;5042708;28;20134;-68
2023/12/28 10:52:32;;;;;;;21.08;3.35;;;11.00;99.90;;;;;;5041519;28;20407;-68
2023/12/28 10:55:30;;;;;;;35.53;5.32;;;11.00;99.90;;;;;;5023116;28;20105;-68
2023/12/28 10:58:02;;;;;;;14.23;2.88;;;11.10;99.90;;;;;;5017795;28;20091;-68
2023/12/28 11:00:33;;;;;;;17.58;3.25;;;11.10;99.90;;;;;;5025777;28;20497;-68
2023/12/28 11:03:05;;;;;;;9.27;1.88;;;11.10;99.90;;;;;;5034064;28;20044;-68
2023/12/28 11:05:32;;;;;;;12.88;2.33;;;11.20;99.90;;;;;;5038285;28;20083;-67
2023/12/28 11:08:00;;;;;;;32.17;3.40;;;11.10;99.90;;;;;;5002809;28;20087;-68
2023/12/28 11:10:28;;;;;;;28.55;3.80;;;11.20;99.90;;;;;;5030005;28;20090;-68
2023/12/28 11:12:56;;;;;;;16.77;2.75;;;11.20;99.90;;;;;;5025101;28;20076;-68
2023/12/28 11:15:25;;;;;;;17.73;3.15;;;11.20;99.90;;;;;;5042107;28;20090;-68
2023/12/28 11:17:52;;;;;;;15.48;2.78;;;11.20;99.90;;;;;;5039411;28;20072;-68
2023/12/28 11:20:19;;;;;;;27.92;3.22;;;11.20;99.90;;;;;;5039581;28;20048;-68
2023/12/28 11:22:46;;;;;;;31.70;4.47;;;11.10;99.90;;;;;;5022721;28;20479;-68
2023/12/28 11:25:16;;;;;;;15.75;2.33;;;11.10;99.90;;;;;;5037588;28;20052;-68
2023/12/28 11:27:42;;;;;;;31.88;4.15;;;11.10;99.90;;;;;;5041869;28;20541;-67
2023/12/28 11:30:10;;;;;;;22.98;2.38;;;11.10;99.90;;;;;;5043298;28;20566;-67
2023/12/28 11:32:36;;;;;;;17.75;2.25;;;11.10;99.90;;;;;;5025327;28;20137;-68
2023/12/28 11:35:02;;;;;;;12.68;2.38;;;11.10;99.90;;;;;;5046189;28;20127;-68
2023/12/28 11:37:29;;;;;;;12.05;1.83;;;11.00;99.90;;;;;;5011139;28;20520;-68
2023/12/28 11:39:57;;;;;;;30.48;3.70;;;11.10;99.90;;;;;;5045135;28;20119;-68
2023/12/28 11:42:23;;;;;;;17.20;1.83;;;11.10;99.90;;;;;;5022616;28;20055;-67
2023/12/28 11:44:55;;;;;;;31.08;3.65;;;11.00;99.90;;;;;;5045317;28;20040;-68
2023/12/28 11:47:29;;;;;;;12.40;1.98;;;11.10;99.90;;;;;;5030001;28;20098;-67
2023/12/28 11:49:55;;;;;;;19.40;3.22;;;11.10;99.90;;;;;;5043449;28;20446;-68
2023/12/28 11:52:28;;;;;;;16.67;2.38;;;11.00;99.90;;;;;;5029010;28;20402;-67
2023/12/28 11:54:55;;;;;;;21.77;3.13;;;11.10;99.90;;;;;;5042103;28;20538;-68
2023/12/28 11:57:21;;;;;;;19.75;2.78;;;11.20;99.90;;;;;;5046536;28;20707;-67
2023/12/28 11:59:58;;;;;;;7.40;1.55;;;11.20;99.90;;;;;;5043231;28;20143;-68
2023/12/28 12:02:24;;;;;;;20.33;2.92;;;11.20;99.90;;;;;;5044890;28;20127;-67
2023/12/28 12:04:50;;;;;;;24.42;3.78;;;11.10;99.90;;;;;;5043608;28;20051;-67
2023/12/28 12:07:16;;;;;;;13.77;2.25;;;11.10;99.90;;;;;;5045615;28;20041;-68
2023/12/28 12:09:42;;;;;;;21.60;3.28;;;11.10;99.90;;;;;;5050781;28;20060;-67
2023/12/28 12:12:08;;;;;;;22.27;3.33;;;11.10;99.90;;;;;;5056943;28;20558;-67
2023/12/28 12:14:35;;;;;;;21.23;2.80;;;11.00;99.90;;;;;;5045952;28;20127;-68
2023/12/28 12:17:01;;;;;;;33.47;3.85;;;11.00;99.90;;;;;;5062040;28;20102;-67
2023/12/28 12:19:27;;;;;;;19.58;2.50;;;11.00;99.90;;;;;;5045984;28;20958;-68
2023/12/28 12:21:54;;;;;;;24.95;3.22;;;10.90;99.90;;;;;;5053591;28;20055;-67
2023/12/28 12:24:21;;;;;;;22.38;3.33;;;10.90;99.90;;;;;;5027804;28;20049;-68
2023/12/28 12:26:47;;;;;;;10.52;2.33;;;10.90;99.90;;;;;;5032189;28;20383;-68
2023/12/28 12:29:16;;;;;;;24.15;3.70;;;11.00;99.90;;;;;;5042920;28;20483;-67
2023/12/28 12:31:44;;;;;;;14.55;3.08;;;10.90;99.90;;;;;;5022168;28;20589;-67
2023/12/28 12:34:16;;;;;;;16.63;2.67;;;10.90;99.90;;;;;;5055140;28;20124;-68
2023/12/28 12:36:42;;;;;;;27.58;3.35;;;10.90;99.90;;;;;;5022694;28;20041;-68
2023/12/28 12:39:11;;;;;;;15.75;2.90;;;10.90;99.90;;;;;;5043329;28;20102;-68
2023/12/28 12:41:37;;;;;;;27.13;3.97;;;10.80;99.90;;;;;;5038564;28;20047;-68
2023/12/28 12:44:04;;;;;;;22.83;4.05;;;10.80;99.90;;;;;;5006713;28;20056;-68